sensor_id;sensor_type;location;lat;lon;timestamp;P1;durP1;ratioP1;P2;durP2;ratioP2
48375;SDS011;34178;50.904;11.560;2023-05-17T00:01:25;4.93;;;1.52;;
48375;SDS011;34178;50.904;11.560;2023-05-17T00:03:50;6.53;;;1.60;;
48375;SDS011;34178;50.904;11.560;2023-05-17T00:06:18;5.05;;;1.70;;
48375;SDS011;34178;50.904;11.560;2023-05-17T00:08:44;6.60;;;1.70;;
48375;SDS011;34178;50.904;11.560;2023-05-17T00:11:10;5.38;;;1.40;;
48375;SDS011;34178;50.904;11.560;2023-05-17T00:13:36;12.38;;;1.70;;
48375;SDS011;34178;50.904;11.560;2023-05-17T00:16:02;4.85;;;1.58;;
48375;SDS011;34178;50.904;11.560;2023-05-17T00:18:28;4.43;;;1.45;;
48375;SDS011;34178;50.904;11.560;2023-05-17T00:20:55;4.28;;;1.13;;
48375;SDS011;34178;50.904;11.560;2023-05-17T00:23:21;7.00;;;1.50;;
48375;SDS011;34178;50.904;11.560;2023-05-17T00:25:46;6.70;;;1.60;;
48375;SDS011;34178;50.904;11.560;2023-05-17T00:28:12;7.03;;;1.60;;
48375;SDS011;34178;50.904;11.560;2023-05-17T00:30:38;8.00;;;2.00;;
48375;SDS011;34178;50.904;11.560;2023-05-17T00:33:03;5.57;;;1.20;;
48375;SDS011;34178;50.904;11.560;2023-05-17T00:35:29;7.75;;;1.40;;
48375;SDS011;34178;50.904;11.560;2023-05-17T00:37:55;6.00;;;1.60;;
48375;SDS011;34178;50.904;11.560;2023-05-17T00:40:20;4.22;;;1.27;;
48375;SDS011;34178;50.904;11.560;2023-05-17T00:42:46;5.35;;;1.40;;
48375;SDS011;34178;50.904;11.560;2023-05-17T00:45:12;4.40;;;1.45;;
48375;SDS011;34178;50.904;11.560;2023-05-17T00:47:37;6.03;;;1.33;;
48375;SDS011;34178;50.904;11.560;2023-05-17T00:50:04;6.18;;;1.40;;
48375;SDS011;34178;50.904;11.560;2023-05-17T00:52:30;5.57;;;1.80;;
48375;SDS011;34178;50.904;11.560;2023-05-17T00:54:56;8.18;;;1.50;;
48375;SDS011;34178;50.904;11.560;2023-05-17T00:57:22;8.60;;;2.50;;
48375;SDS011;34178;50.904;11.560;2023-05-17T00:59:48;6.53;;;1.60;;
48375;SDS011;34178;50.904;11.560;2023-05-17T01:02:16;9.65;;;1.80;;
48375;SDS011;34178;50.904;11.560;2023-05-17T01:04:42;7.25;;;1.70;;
48375;SDS011;34178;50.904;11.560;2023-05-17T01:07:08;6.10;;;1.60;;
48375;SDS011;34178;50.904;11.560;2023-05-17T01:09:35;3.08;;;1.48;;
48375;SDS011;34178;50.904;11.560;2023-05-17T01:12:05;4.43;;;1.55;;
48375;SDS011;34178;50.904;11.560;2023-05-17T01:14:46;9.10;;;1.70;;
48375;SDS011;34178;50.904;11.560;2023-05-17T01:20:19;5.07;;;1.38;;
48375;SDS011;34178;50.904;11.560;2023-05-17T01:28:06;5.85;;;2.25;;
48375;SDS011;34178;50.904;11.560;2023-05-17T01:30:35;4.25;;;1.52;;
48375;SDS011;34178;50.904;11.560;2023-05-17T01:33:02;8.15;;;1.85;;
48375;SDS011;34178;50.904;11.560;2023-05-17T01:35:29;7.43;;;1.60;;
48375;SDS011;34178;50.904;11.560;2023-05-17T01:37:55;4.88;;;1.38;;
48375;SDS011;34178;50.904;11.560;2023-05-17T01:40:21;11.65;;;2.65;;
48375;SDS011;34178;50.904;11.560;2023-05-17T01:42:49;7.22;;;1.60;;
48375;SDS011;34178;50.904;11.560;2023-05-17T01:45:22;9.23;;;2.40;;
48375;SDS011;34178;50.904;11.560;2023-05-17T01:50:28;6.55;;;1.33;;
48375;SDS011;34178;50.904;11.560;2023-05-17T01:53:17;3.45;;;1.40;;
48375;SDS011;34178;50.904;11.560;2023-05-17T01:55:46;5.47;;;1.55;;
48375;SDS011;34178;50.904;11.560;2023-05-17T01:58:15;6.22;;;2.20;;
48375;SDS011;34178;50.904;11.560;2023-05-17T02:00:42;5.80;;;1.48;;
48375;SDS011;34178;50.904;11.560;2023-05-17T02:03:19;5.50;;;1.33;;
48375;SDS011;34178;50.904;11.560;2023-05-17T02:05:45;7.47;;;1.33;;
48375;SDS011;34178;50.904;11.560;2023-05-17T02:08:11;6.90;;;1.48;;
48375;SDS011;34178;50.904;11.560;2023-05-17T02:10:37;6.65;;;1.73;;
48375;SDS011;34178;50.904;11.560;2023-05-17T02:13:03;5.43;;;1.40;;
48375;SDS011;34178;50.904;11.560;2023-05-17T02:15:29;3.60;;;1.40;;
48375;SDS011;34178;50.904;11.560;2023-05-17T02:17:55;5.30;;;1.73;;
48375;SDS011;34178;50.904;11.560;2023-05-17T02:20:21;8.15;;;2.00;;
48375;SDS011;34178;50.904;11.560;2023-05-17T02:22:46;5.88;;;1.90;;
48375;SDS011;34178;50.904;11.560;2023-05-17T02:25:12;6.93;;;1.65;;
48375;SDS011;34178;50.904;11.560;2023-05-17T02:27:38;5.95;;;1.98;;
48375;SDS011;34178;50.904;11.560;2023-05-17T02:30:04;6.00;;;1.98;;
48375;SDS011;34178;50.904;11.560;2023-05-17T02:32:30;6.10;;;1.50;;
48375;SDS011;34178;50.904;11.560;2023-05-17T02:34:57;9.52;;;1.83;;
48375;SDS011;34178;50.904;11.560;2023-05-17T02:37:22;4.55;;;1.55;;
48375;SDS011;34178;50.904;11.560;2023-05-17T02:39:48;7.40;;;1.58;;
48375;SDS011;34178;50.904;11.560;2023-05-17T02:42:14;6.28;;;1.95;;
48375;SDS011;34178;50.904;11.560;2023-05-17T02:44:39;6.78;;;1.90;;
48375;SDS011;34178;50.904;11.560;2023-05-17T02:47:05;6.75;;;1.67;;
48375;SDS011;34178;50.904;11.560;2023-05-17T02:49:31;7.25;;;1.88;;
48375;SDS011;34178;50.904;11.560;2023-05-17T02:51:56;5.90;;;1.80;;
48375;SDS011;34178;50.904;11.560;2023-05-17T02:54:22;6.10;;;1.80;;
48375;SDS011;34178;50.904;11.560;2023-05-17T02:56:48;8.18;;;2.08;;
48375;SDS011;34178;50.904;11.560;2023-05-17T02:59:14;6.15;;;1.90;;
48375;SDS011;34178;50.904;11.560;2023-05-17T03:01:39;6.05;;;1.50;;
48375;SDS011;34178;50.904;11.560;2023-05-17T03:04:06;6.22;;;2.00;;
48375;SDS011;34178;50.904;11.560;2023-05-17T03:06:31;3.10;;;1.55;;
48375;SDS011;34178;50.904;11.560;2023-05-17T03:08:58;6.63;;;1.60;;
48375;SDS011;34178;50.904;11.560;2023-05-17T03:11:24;7.20;;;1.85;;
48375;SDS011;34178;50.904;11.560;2023-05-17T03:13:50;4.43;;;1.60;;
48375;SDS011;34178;50.904;11.560;2023-05-17T03:16:16;10.88;;;2.30;;
48375;SDS011;34178;50.904;11.560;2023-05-17T03:18:42;6.15;;;1.88;;
48375;SDS011;34178;50.904;11.560;2023-05-17T03:21:08;7.75;;;1.92;;
48375;SDS011;34178;50.904;11.560;2023-05-17T03:23:34;6.10;;;1.85;;
48375;SDS011;34178;50.904;11.560;2023-05-17T03:25:59;6.63;;;1.95;;
48375;SDS011;34178;50.904;11.560;2023-05-17T03:28:25;5.53;;;1.83;;
48375;SDS011;34178;50.904;11.560;2023-05-17T03:30:51;5.57;;;1.90;;
48375;SDS011;34178;50.904;11.560;2023-05-17T03:33:17;5.38;;;1.75;;
48375;SDS011;34178;50.904;11.560;2023-05-17T03:35:43;6.30;;;1.70;;
48375;SDS011;34178;50.904;11.560;2023-05-17T03:38:11;5.72;;;1.67;;
48375;SDS011;34178;50.904;11.560;2023-05-17T03:40:37;7.53;;;1.70;;
48375;SDS011;34178;50.904;11.560;2023-05-17T03:43:03;8.07;;;2.10;;
48375;SDS011;34178;50.904;11.560;2023-05-17T03:45:29;5.97;;;1.45;;
48375;SDS011;34178;50.904;11.560;2023-05-17T03:47:54;4.43;;;1.60;;
48375;SDS011;34178;50.904;11.560;2023-05-17T03:50:20;6.90;;;1.70;;
48375;SDS011;34178;50.904;11.560;2023-05-17T03:52:46;5.03;;;1.55;;
48375;SDS011;34178;50.904;11.560;2023-05-17T03:55:12;5.20;;;1.55;;
48375;SDS011;34178;50.904;11.560;2023-05-17T03:57:37;4.57;;;1.80;;
48375;SDS011;34178;50.904;11.560;2023-05-17T04:00:03;4.30;;;1.63;;
48375;SDS011;34178;50.904;11.560;2023-05-17T04:02:38;7.22;;;2.75;;
48375;SDS011;34178;50.904;11.560;2023-05-17T04:05:04;5.10;;;2.28;;
48375;SDS011;34178;50.904;11.560;2023-05-17T04:07:30;5.35;;;1.80;;
48375;SDS011;34178;50.904;11.560;2023-05-17T04:09:56;7.15;;;2.30;;
48375;SDS011;34178;50.904;11.560;2023-05-17T04:12:26;7.65;;;2.40;;
48375;SDS011;34178;50.904;11.560;2023-05-17T04:14:52;8.10;;;2.70;;
48375;SDS011;34178;50.904;11.560;2023-05-17T04:17:18;6.18;;;2.10;;
48375;SDS011;34178;50.904;11.560;2023-05-17T04:19:44;7.75;;;2.63;;
48375;SDS011;34178;50.904;11.560;2023-05-17T04:22:09;8.88;;;2.83;;
48375;SDS011;34178;50.904;11.560;2023-05-17T04:24:35;9.73;;;3.30;;
48375;SDS011;34178;50.904;11.560;2023-05-17T04:27:01;10.40;;;3.20;;
48375;SDS011;34178;50.904;11.560;2023-05-17T04:29:28;9.05;;;3.20;;
48375;SDS011;34178;50.904;11.560;2023-05-17T04:31:54;8.32;;;3.55;;
48375;SDS011;34178;50.904;11.560;2023-05-17T04:34:19;11.23;;;3.35;;
48375;SDS011;34178;50.904;11.560;2023-05-17T04:36:49;9.43;;;3.47;;
48375;SDS011;34178;50.904;11.560;2023-05-17T04:39:15;7.40;;;3.50;;
48375;SDS011;34178;50.904;11.560;2023-05-17T04:41:41;8.40;;;3.58;;
48375;SDS011;34178;50.904;11.560;2023-05-17T04:44:07;12.23;;;5.05;;
48375;SDS011;34178;50.904;11.560;2023-05-17T04:46:33;13.55;;;5.03;;
48375;SDS011;34178;50.904;11.560;2023-05-17T04:48:59;7.45;;;4.18;;
48375;SDS011;34178;50.904;11.560;2023-05-17T04:51:25;10.95;;;4.05;;
48375;SDS011;34178;50.904;11.560;2023-05-17T04:53:53;8.25;;;4.10;;
48375;SDS011;34178;50.904;11.560;2023-05-17T04:56:19;7.55;;;3.20;;
48375;SDS011;34178;50.904;11.560;2023-05-17T04:58:44;9.07;;;3.60;;
48375;SDS011;34178;50.904;11.560;2023-05-17T05:01:10;12.93;;;3.78;;
48375;SDS011;34178;50.904;11.560;2023-05-17T05:03:36;6.57;;;3.50;;
48375;SDS011;34178;50.904;11.560;2023-05-17T05:06:02;9.07;;;3.90;;
48375;SDS011;34178;50.904;11.560;2023-05-17T05:08:28;8.43;;;3.95;;
48375;SDS011;34178;50.904;11.560;2023-05-17T05:10:54;11.80;;;3.55;;
48375;SDS011;34178;50.904;11.560;2023-05-17T05:13:21;13.80;;;3.38;;
48375;SDS011;34178;50.904;11.560;2023-05-17T05:15:47;7.65;;;3.22;;
48375;SDS011;34178;50.904;11.560;2023-05-17T05:18:12;9.15;;;3.97;;
48375;SDS011;34178;50.904;11.560;2023-05-17T05:20:38;6.13;;;2.88;;
48375;SDS011;34178;50.904;11.560;2023-05-17T05:23:04;10.45;;;3.90;;
48375;SDS011;34178;50.904;11.560;2023-05-17T05:25:32;12.50;;;4.60;;
48375;SDS011;34178;50.904;11.560;2023-05-17T05:27:59;8.55;;;3.60;;
48375;SDS011;34178;50.904;11.560;2023-05-17T05:30:25;11.60;;;4.10;;
48375;SDS011;34178;50.904;11.560;2023-05-17T05:32:50;10.98;;;3.30;;
48375;SDS011;34178;50.904;11.560;2023-05-17T05:35:17;10.20;;;3.53;;
48375;SDS011;34178;50.904;11.560;2023-05-17T05:37:43;9.27;;;3.20;;
48375;SDS011;34178;50.904;11.560;2023-05-17T05:40:09;11.45;;;3.22;;
48375;SDS011;34178;50.904;11.560;2023-05-17T05:42:35;8.27;;;3.60;;
48375;SDS011;34178;50.904;11.560;2023-05-17T05:45:01;9.57;;;3.65;;
48375;SDS011;34178;50.904;11.560;2023-05-17T05:47:27;12.50;;;3.80;;
48375;SDS011;34178;50.904;11.560;2023-05-17T05:49:53;8.80;;;3.63;;
48375;SDS011;34178;50.904;11.560;2023-05-17T05:52:19;9.68;;;3.67;;
48375;SDS011;34178;50.904;11.560;2023-05-17T05:54:45;8.05;;;3.35;;
48375;SDS011;34178;50.904;11.560;2023-05-17T05:57:10;8.45;;;3.95;;
48375;SDS011;34178;50.904;11.560;2023-05-17T05:59:36;8.35;;;3.58;;
48375;SDS011;34178;50.904;11.560;2023-05-17T06:02:02;8.93;;;3.45;;
48375;SDS011;34178;50.904;11.560;2023-05-17T06:04:27;9.15;;;4.00;;
48375;SDS011;34178;50.904;11.560;2023-05-17T06:06:54;11.80;;;4.50;;
48375;SDS011;34178;50.904;11.560;2023-05-17T06:09:19;15.55;;;7.30;;
48375;SDS011;34178;50.904;11.560;2023-05-17T06:11:45;14.02;;;6.13;;
48375;SDS011;34178;50.904;11.560;2023-05-17T06:14:11;12.00;;;4.30;;
48375;SDS011;34178;50.904;11.560;2023-05-17T06:16:37;8.80;;;3.75;;
48375;SDS011;34178;50.904;11.560;2023-05-17T06:19:02;9.35;;;4.00;;
48375;SDS011;34178;50.904;11.560;2023-05-17T06:21:28;15.65;;;4.30;;
48375;SDS011;34178;50.904;11.560;2023-05-17T06:23:55;15.45;;;4.28;;
48375;SDS011;34178;50.904;11.560;2023-05-17T06:26:21;14.45;;;4.82;;
48375;SDS011;34178;50.904;11.560;2023-05-17T06:28:47;13.07;;;3.55;;
48375;SDS011;34178;50.904;11.560;2023-05-17T06:31:12;14.70;;;3.92;;
48375;SDS011;34178;50.904;11.560;2023-05-17T06:33:38;14.15;;;4.32;;
48375;SDS011;34178;50.904;11.560;2023-05-17T06:36:03;12.95;;;4.50;;
48375;SDS011;34178;50.904;11.560;2023-05-17T06:38:29;9.52;;;3.50;;
48375;SDS011;34178;50.904;11.560;2023-05-17T06:40:55;15.57;;;4.47;;
48375;SDS011;34178;50.904;11.560;2023-05-17T06:43:22;13.77;;;4.28;;
48375;SDS011;34178;50.904;11.560;2023-05-17T06:45:48;12.25;;;4.05;;
48375;SDS011;34178;50.904;11.560;2023-05-17T06:48:14;13.75;;;4.10;;
48375;SDS011;34178;50.904;11.560;2023-05-17T06:50:40;14.70;;;3.90;;
48375;SDS011;34178;50.904;11.560;2023-05-17T06:53:06;15.13;;;4.50;;
48375;SDS011;34178;50.904;11.560;2023-05-17T06:55:32;9.43;;;3.47;;
48375;SDS011;34178;50.904;11.560;2023-05-17T06:57:57;11.73;;;3.65;;
48375;SDS011;34178;50.904;11.560;2023-05-17T07:00:24;11.10;;;4.18;;
48375;SDS011;34178;50.904;11.560;2023-05-17T07:02:50;12.60;;;3.58;;
48375;SDS011;34178;50.904;11.560;2023-05-17T07:05:17;16.80;;;5.00;;
48375;SDS011;34178;50.904;11.560;2023-05-17T07:07:43;14.27;;;3.95;;
48375;SDS011;34178;50.904;11.560;2023-05-17T07:10:09;12.30;;;4.43;;
48375;SDS011;34178;50.904;11.560;2023-05-17T07:12:34;13.77;;;4.60;;
48375;SDS011;34178;50.904;11.560;2023-05-17T07:15:00;15.02;;;4.13;;
48375;SDS011;34178;50.904;11.560;2023-05-17T07:17:26;16.75;;;4.50;;
48375;SDS011;34178;50.904;11.560;2023-05-17T07:19:52;14.77;;;4.05;;
48375;SDS011;34178;50.904;11.560;2023-05-17T07:22:18;13.88;;;3.92;;
48375;SDS011;34178;50.904;11.560;2023-05-17T07:24:44;13.30;;;4.47;;
48375;SDS011;34178;50.904;11.560;2023-05-17T07:27:10;8.82;;;3.67;;
48375;SDS011;34178;50.904;11.560;2023-05-17T07:29:36;14.80;;;4.70;;
48375;SDS011;34178;50.904;11.560;2023-05-17T07:32:02;15.10;;;4.32;;
48375;SDS011;34178;50.904;11.560;2023-05-17T07:34:29;18.95;;;4.15;;
48375;SDS011;34178;50.904;11.560;2023-05-17T07:36:55;13.45;;;4.30;;
48375;SDS011;34178;50.904;11.560;2023-05-17T07:39:20;15.57;;;4.28;;
48375;SDS011;34178;50.904;11.560;2023-05-17T07:41:46;15.02;;;4.03;;
48375;SDS011;34178;50.904;11.560;2023-05-17T07:44:12;12.65;;;4.57;;
48375;SDS011;34178;50.904;11.560;2023-05-17T07:46:37;15.00;;;3.95;;
48375;SDS011;34178;50.904;11.560;2023-05-17T07:49:03;16.13;;;4.28;;
48375;SDS011;34178;50.904;11.560;2023-05-17T07:51:29;17.67;;;4.35;;
48375;SDS011;34178;50.904;11.560;2023-05-17T07:53:55;12.52;;;3.55;;
48375;SDS011;34178;50.904;11.560;2023-05-17T07:56:21;17.10;;;4.22;;
48375;SDS011;34178;50.904;11.560;2023-05-17T07:58:47;14.45;;;4.68;;
48375;SDS011;34178;50.904;11.560;2023-05-17T08:01:13;13.13;;;4.10;;
48375;SDS011;34178;50.904;11.560;2023-05-17T08:03:38;11.98;;;4.13;;
48375;SDS011;34178;50.904;11.560;2023-05-17T08:06:11;12.75;;;4.55;;
48375;SDS011;34178;50.904;11.560;2023-05-17T08:08:38;16.20;;;4.70;;
48375;SDS011;34178;50.904;11.560;2023-05-17T08:11:05;17.75;;;5.00;;
48375;SDS011;34178;50.904;11.560;2023-05-17T08:13:31;13.57;;;3.97;;
48375;SDS011;34178;50.904;11.560;2023-05-17T08:15:56;13.15;;;4.65;;
48375;SDS011;34178;50.904;11.560;2023-05-17T08:20:56;17.92;;;5.38;;
48375;SDS011;34178;50.904;11.560;2023-05-17T08:23:21;13.05;;;4.45;;
48375;SDS011;34178;50.904;11.560;2023-05-17T08:25:47;15.90;;;4.53;;
48375;SDS011;34178;50.904;11.560;2023-05-17T08:28:12;15.10;;;5.20;;
48375;SDS011;34178;50.904;11.560;2023-05-17T08:30:38;13.73;;;4.32;;
48375;SDS011;34178;50.904;11.560;2023-05-17T08:33:05;10.48;;;4.28;;
48375;SDS011;34178;50.904;11.560;2023-05-17T08:35:33;17.67;;;5.25;;
48375;SDS011;34178;50.904;11.560;2023-05-17T08:37:59;16.90;;;4.68;;
48375;SDS011;34178;50.904;11.560;2023-05-17T08:40:25;13.48;;;5.05;;
48375;SDS011;34178;50.904;11.560;2023-05-17T08:42:51;18.05;;;4.85;;
48375;SDS011;34178;50.904;11.560;2023-05-17T08:45:17;14.07;;;4.65;;
48375;SDS011;34178;50.904;11.560;2023-05-17T08:47:43;16.42;;;4.60;;
48375;SDS011;34178;50.904;11.560;2023-05-17T08:50:10;14.18;;;4.47;;
48375;SDS011;34178;50.904;11.560;2023-05-17T08:52:36;14.45;;;4.75;;
48375;SDS011;34178;50.904;11.560;2023-05-17T08:55:04;12.13;;;4.30;;
48375;SDS011;34178;50.904;11.560;2023-05-17T08:57:32;17.40;;;5.22;;
48375;SDS011;34178;50.904;11.560;2023-05-17T09:00:02;12.45;;;4.95;;
48375;SDS011;34178;50.904;11.560;2023-05-17T09:02:36;17.98;;;5.25;;
48375;SDS011;34178;50.904;11.560;2023-05-17T09:05:02;11.38;;;4.65;;
48375;SDS011;34178;50.904;11.560;2023-05-17T09:07:30;17.42;;;5.15;;
48375;SDS011;34178;50.904;11.560;2023-05-17T09:09:56;12.48;;;4.20;;
48375;SDS011;34178;50.904;11.560;2023-05-17T09:12:22;17.13;;;6.15;;
48375;SDS011;34178;50.904;11.560;2023-05-17T09:14:48;13.05;;;5.63;;
48375;SDS011;34178;50.904;11.560;2023-05-17T09:17:19;17.48;;;5.43;;
48375;SDS011;34178;50.904;11.560;2023-05-17T09:19:46;17.00;;;4.85;;
48375;SDS011;34178;50.904;11.560;2023-05-17T09:22:16;18.77;;;5.10;;
48375;SDS011;34178;50.904;11.560;2023-05-17T09:24:43;14.77;;;5.00;;
48375;SDS011;34178;50.904;11.560;2023-05-17T09:27:13;14.45;;;5.40;;
48375;SDS011;34178;50.904;11.560;2023-05-17T09:29:43;13.32;;;5.07;;
48375;SDS011;34178;50.904;11.560;2023-05-17T09:34:40;12.43;;;4.32;;
48375;SDS011;34178;50.904;11.560;2023-05-17T09:37:16;16.30;;;4.72;;
48375;SDS011;34178;50.904;11.560;2023-05-17T09:39:43;13.18;;;4.20;;
48375;SDS011;34178;50.904;11.560;2023-05-17T09:42:10;13.23;;;4.57;;
48375;SDS011;34178;50.904;11.560;2023-05-17T09:44:46;12.88;;;3.55;;
48375;SDS011;34178;50.904;11.560;2023-05-17T09:47:20;9.80;;;3.85;;
48375;SDS011;34178;50.904;11.560;2023-05-17T09:49:56;12.55;;;4.55;;
48375;SDS011;34178;50.904;11.560;2023-05-17T09:52:25;15.25;;;4.32;;
48375;SDS011;34178;50.904;11.560;2023-05-17T09:54:56;10.45;;;3.75;;
48375;SDS011;34178;50.904;11.560;2023-05-17T09:57:24;11.10;;;3.40;;
48375;SDS011;34178;50.904;11.560;2023-05-17T09:59:53;14.50;;;5.13;;
48375;SDS011;34178;50.904;11.560;2023-05-17T10:02:22;16.48;;;4.10;;
48375;SDS011;34178;50.904;11.560;2023-05-17T10:07:19;14.18;;;3.75;;
48375;SDS011;34178;50.904;11.560;2023-05-17T10:09:48;9.05;;;3.67;;
48375;SDS011;34178;50.904;11.560;2023-05-17T10:12:20;11.07;;;4.40;;
48375;SDS011;34178;50.904;11.560;2023-05-17T10:14:47;9.13;;;3.60;;
48375;SDS011;34178;50.904;11.560;2023-05-17T10:17:14;11.63;;;3.40;;
48375;SDS011;34178;50.904;11.560;2023-05-17T10:19:41;14.35;;;4.22;;
48375;SDS011;34178;50.904;11.560;2023-05-17T10:22:07;10.68;;;3.92;;
48375;SDS011;34178;50.904;11.560;2023-05-17T10:24:34;10.15;;;3.92;;
48375;SDS011;34178;50.904;11.560;2023-05-17T10:27:04;16.23;;;3.60;;
48375;SDS011;34178;50.904;11.560;2023-05-17T10:29:31;10.63;;;4.20;;
48375;SDS011;34178;50.904;11.560;2023-05-17T10:32:04;12.88;;;4.32;;
48375;SDS011;34178;50.904;11.560;2023-05-17T10:34:32;12.10;;;4.20;;
48375;SDS011;34178;50.904;11.560;2023-05-17T10:37:03;12.02;;;4.32;;
48375;SDS011;34178;50.904;11.560;2023-05-17T10:39:30;16.30;;;3.70;;
48375;SDS011;34178;50.904;11.560;2023-05-17T10:41:58;10.13;;;3.33;;
48375;SDS011;34178;50.904;11.560;2023-05-17T10:44:29;10.05;;;3.45;;
48375;SDS011;34178;50.904;11.560;2023-05-17T10:46:56;10.73;;;3.45;;
48375;SDS011;34178;50.904;11.560;2023-05-17T10:49:32;12.52;;;3.50;;
48375;SDS011;34178;50.904;11.560;2023-05-17T10:52:17;10.77;;;3.78;;
48375;SDS011;34178;50.904;11.560;2023-05-17T10:54:47;13.45;;;3.75;;
48375;SDS011;34178;50.904;11.560;2023-05-17T10:57:18;12.82;;;3.53;;
48375;SDS011;34178;50.904;11.560;2023-05-17T11:00:04;10.27;;;3.58;;
48375;SDS011;34178;50.904;11.560;2023-05-17T11:02:31;11.02;;;3.58;;
48375;SDS011;34178;50.904;11.560;2023-05-17T11:04:57;11.48;;;3.85;;
48375;SDS011;34178;50.904;11.560;2023-05-17T11:09:52;9.55;;;3.38;;
48375;SDS011;34178;50.904;11.560;2023-05-17T11:12:30;10.95;;;3.22;;
48375;SDS011;34178;50.904;11.560;2023-05-17T11:14:59;10.15;;;3.72;;
48375;SDS011;34178;50.904;11.560;2023-05-17T11:22:42;11.63;;;3.60;;
48375;SDS011;34178;50.904;11.560;2023-05-17T11:25:22;14.55;;;3.72;;
48375;SDS011;34178;50.904;11.560;2023-05-17T11:27:50;17.33;;;3.80;;
48375;SDS011;34178;50.904;11.560;2023-05-17T11:30:27;11.82;;;3.60;;
48375;SDS011;34178;50.904;11.560;2023-05-17T11:35:27;13.25;;;3.58;;
48375;SDS011;34178;50.904;11.560;2023-05-17T11:40:48;10.35;;;3.67;;
48375;SDS011;34178;50.904;11.560;2023-05-17T11:43:18;10.15;;;3.50;;
48375;SDS011;34178;50.904;11.560;2023-05-17T11:48:14;11.50;;;3.45;;
48375;SDS011;34178;50.904;11.560;2023-05-17T11:50:41;10.77;;;3.13;;
48375;SDS011;34178;50.904;11.560;2023-05-17T11:53:08;13.18;;;3.20;;
48375;SDS011;34178;50.904;11.560;2023-05-17T11:55:44;10.77;;;3.38;;
48375;SDS011;34178;50.904;11.560;2023-05-17T11:58:15;10.70;;;3.45;;
48375;SDS011;34178;50.904;11.560;2023-05-17T12:00:52;11.65;;;2.92;;
48375;SDS011;34178;50.904;11.560;2023-05-17T12:06:10;8.45;;;2.55;;
48375;SDS011;34178;50.904;11.560;2023-05-17T12:11:09;12.18;;;3.08;;
48375;SDS011;34178;50.904;11.560;2023-05-17T12:13:36;11.10;;;3.25;;
48375;SDS011;34178;50.904;11.560;2023-05-17T12:16:09;10.48;;;3.30;;
48375;SDS011;34178;50.904;11.560;2023-05-17T12:21:04;9.65;;;2.38;;
48375;SDS011;34178;50.904;11.560;2023-05-17T12:23:34;10.02;;;3.00;;
48375;SDS011;34178;50.904;11.560;2023-05-17T12:26:14;12.32;;;3.20;;
48375;SDS011;34178;50.904;11.560;2023-05-17T12:28:45;12.00;;;2.95;;
48375;SDS011;34178;50.904;11.560;2023-05-17T12:31:24;9.85;;;2.15;;
48375;SDS011;34178;50.904;11.560;2023-05-17T12:33:53;11.93;;;2.50;;
48375;SDS011;34178;50.904;11.560;2023-05-17T12:36:20;9.10;;;2.30;;
48375;SDS011;34178;50.904;11.560;2023-05-17T12:38:46;8.90;;;2.63;;
48375;SDS011;34178;50.904;11.560;2023-05-17T12:41:13;12.80;;;2.38;;
48375;SDS011;34178;50.904;11.560;2023-05-17T12:43:42;8.35;;;1.92;;
48375;SDS011;34178;50.904;11.560;2023-05-17T12:46:10;8.43;;;2.45;;
48375;SDS011;34178;50.904;11.560;2023-05-17T12:48:38;10.77;;;2.45;;
48375;SDS011;34178;50.904;11.560;2023-05-17T12:51:06;7.35;;;2.38;;
48375;SDS011;34178;50.904;11.560;2023-05-17T12:53:38;8.95;;;2.42;;
48375;SDS011;34178;50.904;11.560;2023-05-17T12:56:08;10.23;;;2.78;;
48375;SDS011;34178;50.904;11.560;2023-05-17T12:58:43;8.68;;;2.20;;
48375;SDS011;34178;50.904;11.560;2023-05-17T13:01:31;11.35;;;2.55;;
48375;SDS011;34178;50.904;11.560;2023-05-17T13:04:01;10.95;;;2.42;;
48375;SDS011;34178;50.904;11.560;2023-05-17T13:06:27;8.25;;;2.00;;
48375;SDS011;34178;50.904;11.560;2023-05-17T13:08:59;11.02;;;2.63;;
48375;SDS011;34178;50.904;11.560;2023-05-17T13:11:25;9.63;;;2.33;;
48375;SDS011;34178;50.904;11.560;2023-05-17T13:13:51;10.48;;;2.00;;
48375;SDS011;34178;50.904;11.560;2023-05-17T13:16:26;11.68;;;2.25;;
48375;SDS011;34178;50.904;11.560;2023-05-17T13:18:53;9.93;;;2.60;;
48375;SDS011;34178;50.904;11.560;2023-05-17T13:21:22;9.63;;;2.03;;
48375;SDS011;34178;50.904;11.560;2023-05-17T13:23:48;8.32;;;2.38;;
48375;SDS011;34178;50.904;11.560;2023-05-17T13:26:15;9.40;;;2.50;;
48375;SDS011;34178;50.904;11.560;2023-05-17T13:28:41;9.32;;;2.35;;
48375;SDS011;34178;50.904;11.560;2023-05-17T13:31:07;8.90;;;2.97;;
48375;SDS011;34178;50.904;11.560;2023-05-17T13:33:33;13.93;;;3.33;;
48375;SDS011;34178;50.904;11.560;2023-05-17T13:35:58;9.70;;;2.50;;
48375;SDS011;34178;50.904;11.560;2023-05-17T13:38:24;9.43;;;2.17;;
48375;SDS011;34178;50.904;11.560;2023-05-17T13:40:50;10.05;;;2.45;;
48375;SDS011;34178;50.904;11.560;2023-05-17T13:43:16;9.55;;;2.35;;
48375;SDS011;34178;50.904;11.560;2023-05-17T13:45:42;9.52;;;1.98;;
48375;SDS011;34178;50.904;11.560;2023-05-17T13:48:08;12.95;;;2.40;;
48375;SDS011;34178;50.904;11.560;2023-05-17T13:50:34;14.07;;;3.97;;
48375;SDS011;34178;50.904;11.560;2023-05-17T13:53:01;7.82;;;2.30;;
48375;SDS011;34178;50.904;11.560;2023-05-17T13:55:27;8.13;;;2.22;;
48375;SDS011;34178;50.904;11.560;2023-05-17T13:57:53;51.22;;;6.78;;
48375;SDS011;34178;50.904;11.560;2023-05-17T14:00:18;11.07;;;2.33;;
48375;SDS011;34178;50.904;11.560;2023-05-17T14:02:45;8.05;;;2.13;;
48375;SDS011;34178;50.904;11.560;2023-05-17T14:05:10;11.43;;;2.70;;
48375;SDS011;34178;50.904;11.560;2023-05-17T14:07:36;12.55;;;3.10;;
48375;SDS011;34178;50.904;11.560;2023-05-17T14:10:09;16.10;;;5.40;;
48375;SDS011;34178;50.904;11.560;2023-05-17T14:12:38;7.22;;;1.75;;
48375;SDS011;34178;50.904;11.560;2023-05-17T14:15:05;9.95;;;2.60;;
48375;SDS011;34178;50.904;11.560;2023-05-17T14:17:32;11.18;;;2.47;;
48375;SDS011;34178;50.904;11.560;2023-05-17T14:19:57;11.90;;;2.50;;
48375;SDS011;34178;50.904;11.560;2023-05-17T14:22:23;7.07;;;1.98;;
48375;SDS011;34178;50.904;11.560;2023-05-17T14:24:49;10.30;;;2.17;;
48375;SDS011;34178;50.904;11.560;2023-05-17T14:27:15;11.80;;;2.53;;
48375;SDS011;34178;50.904;11.560;2023-05-17T14:29:40;11.75;;;2.85;;
48375;SDS011;34178;50.904;11.560;2023-05-17T14:32:06;10.50;;;2.85;;
48375;SDS011;34178;50.904;11.560;2023-05-17T14:34:32;6.93;;;2.10;;
48375;SDS011;34178;50.904;11.560;2023-05-17T14:36:57;9.82;;;2.83;;
48375;SDS011;34178;50.904;11.560;2023-05-17T14:39:23;9.73;;;2.17;;
48375;SDS011;34178;50.904;11.560;2023-05-17T14:41:49;9.20;;;2.05;;
48375;SDS011;34178;50.904;11.560;2023-05-17T14:44:14;7.20;;;2.10;;
48375;SDS011;34178;50.904;11.560;2023-05-17T14:46:40;8.43;;;2.20;;
48375;SDS011;34178;50.904;11.560;2023-05-17T14:49:06;9.82;;;2.72;;
48375;SDS011;34178;50.904;11.560;2023-05-17T14:51:31;9.85;;;2.38;;
48375;SDS011;34178;50.904;11.560;2023-05-17T14:53:57;7.38;;;2.03;;
48375;SDS011;34178;50.904;11.560;2023-05-17T14:56:23;9.98;;;2.92;;
48375;SDS011;34178;50.904;11.560;2023-05-17T14:58:49;11.68;;;2.45;;
48375;SDS011;34178;50.904;11.560;2023-05-17T15:01:15;8.52;;;2.17;;
48375;SDS011;34178;50.904;11.560;2023-05-17T15:03:41;10.70;;;2.47;;
48375;SDS011;34178;50.904;11.560;2023-05-17T15:06:07;9.13;;;2.53;;
48375;SDS011;34178;50.904;11.560;2023-05-17T15:08:33;10.15;;;2.63;;
48375;SDS011;34178;50.904;11.560;2023-05-17T15:10:59;11.60;;;3.17;;